Time;durP1;ratioP1;P1;durP2;ratioP2;P2;SDS_P1;SDS_P2;PMS_P1;PMS_P2;Temp;Humidity;BMP_temperature;BMP_pressure;BME280_temperature;BME280_humidity;BME280_pressure;Samples;Min_cycle;Max_cycle;Signal;HPM_P1;HPM_P2
2021/12/19 00:00:24;;;;;;;;;;;;;;;;;;5034069;28;19917;-87
2021/12/19 00:08:49;;;;;;;;;;;;;;;;;;5034460;28;19992;-88
2021/12/19 00:11:11;;;;;;;;;;;;;;;;;;5034538;28;19928;-87
2021/12/19 00:13:37;;;;;;;;;;;;;;;;;;5033235;28;19921;-88
2021/12/19 00:16:18;;;;;;;;;;;;;;;;;;5034904;28;19924;-86
2021/12/19 00:19:17;;;;;;;;;;;;;;;;;;5033665;28;19971;-86
2021/12/19 00:21:44;;;;;;;;;;;;;;;;;;5048124;28;20078;-87
2021/12/19 00:24:18;;;;;;;;;;;;;;;;;;5031144;28;19921;-86
2021/12/19 00:26:44;;;;;;;;;;;;;;;;;;5050123;28;19917;-86
2021/12/19 00:29:09;;;;;;;;;;;;;;;;;;5035199;28;19927;-86
2021/12/19 00:32:05;;;;;;;;;;;;;;;;;;5032654;28;19952;-86
2021/12/19 00:34:32;;;;;;;;;;;;;;;;;;5047775;28;19972;-86
2021/12/19 00:37:10;;;;;;;;;;;;;;;;;;5034855;28;19979;-86
2021/12/19 00:39:35;;;;;;;;;;;;;;;;;;5032563;28;19917;-85
2021/12/19 00:42:04;;;;;;;;;;;;;;;;;;5035050;28;19917;-86
2021/12/19 00:44:32;;;;;;;;;;;;;;;;;;5027587;28;20260;-85
2021/12/19 00:47:05;;;;;;;;;;;;;;;;;;5034563;28;20262;-86
2021/12/19 00:49:36;;;;;;;;;;;;;;;;;;5029415;28;19917;-85
2021/12/19 00:52:02;;;;;;;;;;;;;;;;;;5016518;28;20547;-85
2021/12/19 00:54:30;;;;;;;;;;;;;;;;;;5033868;28;19921;-85
2021/12/19 00:56:57;;;;;;;;;;;;;;;;;;5033982;28;19917;-84
2021/12/19 00:59:23;;;;;;;;;;;;;;;;;;5033601;28;19917;-84
2021/12/19 01:01:48;;;;;;;;;;;;;;;;;;5034916;28;19927;-84
2021/12/19 01:04:14;;;;;;;;;;;;;;;;;;5035285;28;19983;-84
2021/12/19 01:06:43;;;;;;;;;;;;;;;;;;5034918;28;20342;-84
2021/12/19 01:09:09;;;;;;;;;;;;;;;;;;5018158;28;20361;-84
2021/12/19 01:11:34;;;;;;;;;;;;;;;;;;5017719;28;19917;-84
2021/12/19 01:13:59;;;;;;;;;;;;;;;;;;5034169;28;19932;-84
2021/12/19 01:16:27;;;;;;;;;;;;;;;;;;5034584;28;19943;-84
2021/12/19 01:18:52;;;;;;;;;;;;;;;;;;5034628;28;19978;-84
2021/12/19 01:21:18;;;;;;;;;;;;;;;;;;5034227;28;20007;-84
2021/12/19 01:23:43;;;;;;;;;;;;;;;;;;5033642;28;20361;-84
2021/12/19 01:26:08;;;;;;;;;;;;;;;;;;5034753;28;19924;-84
2021/12/19 01:28:38;;;;;;;;;;;;;;;;;;5013668;28;19917;-85
2021/12/19 01:31:05;;;;;;;;;;;;;;;;;;5014919;28;19914;-85
2021/12/19 01:33:30;;;;;;;;;;;;;;;;;;5018746;28;19964;-86
2021/12/19 01:35:56;;;;;;;;;;;;;;;;;;5033513;28;19944;-85
2021/12/19 01:38:21;;;;;;;;;;;;;;;;;;5034003;28;20231;-86
2021/12/19 01:40:46;;;;;;;;;;;;;;;;;;5033895;28;19917;-86
2021/12/19 01:43:11;;;;;;;;;;;;;;;;;;5033390;28;19917;-85
2021/12/19 01:45:38;;;;;;;;;;;;;;;;;;5033670;28;19979;-86
2021/12/19 01:48:04;;;;;;;;;;;;;;;;;;5033323;28;19913;-86
2021/12/19 01:50:31;;;;;;;;;;;;;;;;;;5034521;28;19913;-86
2021/12/19 01:52:58;;;;;;;;;;;;;;;;;;5034002;28;20284;-85
2021/12/19 01:55:23;;;;;;;;;;;;;;;;;;5032847;28;20467;-86
2021/12/19 01:57:49;;;;;;;;;;;;;;;;;;5034073;28;19917;-85
2021/12/19 02:00:22;;;;;;;;;;;;;;;;;;5020448;28;19964;-85
2021/12/19 02:02:49;;;;;;;;;;;;;;;;;;5014447;28;20433;-86
2021/12/19 02:05:14;;;;;;;;;;;;;;;;;;5032059;28;19917;-85
2021/12/19 02:07:45;;;;;;;;;;;;;;;;;;5033076;28;19933;-86
2021/12/19 02:10:13;;;;;;;;;;;;;;;;;;5033554;28;19927;-86
2021/12/19 02:12:38;;;;;;;;;;;;;;;;;;5033113;28;20497;-86
2021/12/19 02:15:04;;;;;;;;;;;;;;;;;;5033852;28;19925;-86
2021/12/19 02:17:29;;;;;;;;;;;;;;;;;;5033336;28;19914;-86
2021/12/19 02:19:56;;;;;;;;;;;;;;;;;;5033776;28;20307;-86
2021/12/19 02:22:21;;;;;;;;;;;;;;;;;;5034348;28;19924;-86
2021/12/19 02:24:46;;;;;;;;;;;;;;;;;;5033534;28;19913;-85
2021/12/19 02:27:11;;;;;;;;;;;;;;;;;;5033935;28;19912;-84
2021/12/19 02:29:37;;;;;;;;;;;;;;;;;;5033972;28;20012;-84
2021/12/19 02:32:04;;;;;;;;;;;;;;;;;;5033494;28;20012;-84
2021/12/19 02:34:32;;;;;;;;;;;;;;;;;;5044120;28;20239;-84
2021/12/19 02:37:07;;;;;;;;;;;;;;;;;;5043407;28;19917;-84
2021/12/19 02:50:00;;;;;;;;;;;;;;;;;;5037358;28;19975;-84
2021/12/19 02:52:25;;;;;;;;;;;;;;;;;;5036625;28;19913;-84
2021/12/19 02:54:50;;;;;;;;;;;;;;;;;;5036654;28;19925;-85
2021/12/19 02:57:16;;;;;;;;;;;;;;;;;;5037405;28;19927;-85
2021/12/19 02:59:41;;;;;;;;;;;;;;;;;;5037425;28;20496;-85
2021/12/19 03:02:06;;;;;;;;;;;;;;;;;;5035667;28;20297;-85
2021/12/19 03:04:31;;;;;;;;;;;;;;;;;;5036709;28;19917;-85
2021/12/19 03:06:56;;;;;;;;;;;;;;;;;;5042931;28;19978;-85
2021/12/19 03:12:08;;;;;;;;;;;;;;;;;;5036573;28;19917;-84
2021/12/19 03:20:04;;;;;;;;;;;;;;;;;;5036903;28;20350;-85
2021/12/19 03:22:29;;;;;;;;;;;;;;;;;;5036212;28;19913;-84
2021/12/19 03:24:55;;;;;;;;;;;;;;;;;;5035916;28;20262;-84
2021/12/19 03:27:20;;;;;;;;;;;;;;;;;;5036759;28;20258;-84
2021/12/19 03:29:45;;;;;;;;;;;;;;;;;;5036479;28;20240;-85
2021/12/19 03:32:10;;;;;;;;;;;;;;;;;;5036618;28;19921;-85
2021/12/19 03:34:36;;;;;;;;;;;;;;;;;;5036694;28;20439;-85
2021/12/19 03:37:01;;;;;;;;;;;;;;;;;;5036767;28;19914;-85
2021/12/19 03:39:36;;;;;;;;;;;;;;;;;;5035542;28;19917;-84
2021/12/19 03:42:02;;;;;;;;;;;;;;;;;;5036140;28;19917;-85
2021/12/19 03:44:27;;;;;;;;;;;;;;;;;;5036674;28;20250;-84
2021/12/19 03:46:55;;;;;;;;;;;;;;;;;;5035620;28;19971;-85
2021/12/19 03:49:20;;;;;;;;;;;;;;;;;;5035471;28;19924;-85
2021/12/19 03:51:46;;;;;;;;;;;;;;;;;;5036591;28;19913;-85
2021/12/19 03:54:11;;;;;;;;;;;;;;;;;;5036679;28;20391;-85
2021/12/19 03:56:36;;;;;;;;;;;;;;;;;;5036161;28;19979;-85
2021/12/19 03:59:02;;;;;;;;;;;;;;;;;;5036411;28;19971;-85
2021/12/19 04:01:30;;;;;;;;;;;;;;;;;;5036592;28;19913;-85
2021/12/19 04:03:57;;;;;;;;;;;;;;;;;;5036136;28;19917;-85
2021/12/19 04:06:22;;;;;;;;;;;;;;;;;;5036311;28;19968;-85
2021/12/19 04:08:50;;;;;;;;;;;;;;;;;;5034941;28;19917;-85
2021/12/19 04:11:15;;;;;;;;;;;;;;;;;;5035784;28;19928;-85
2021/12/19 04:13:40;;;;;;;;;;;;;;;;;;5035007;28;19916;-85
2021/12/19 04:16:05;;;;;;;;;;;;;;;;;;5036192;28;19913;-85
2021/12/19 04:18:33;;;;;;;;;;;;;;;;;;5035900;28;20018;-85
2021/12/19 04:20:58;;;;;;;;;;;;;;;;;;5036099;28;20335;-85
2021/12/19 04:23:24;;;;;;;;;;;;;;;;;;5035821;28;20007;-85
2021/12/19 04:25:51;;;;;;;;;;;;;;;;;;5035482;28;20396;-85
2021/12/19 04:28:16;;;;;;;;;;;;;;;;;;5035702;28;19956;-84
2021/12/19 04:30:41;;;;;;;;;;;;;;;;;;5035759;28;20393;-84
2021/12/19 04:33:10;;;;;;;;;;;;;;;;;;5034551;28;20270;-84
2021/12/19 04:35:36;;;;;;;;;;;;;;;;;;5035855;28;19921;-84
2021/12/19 04:51:46;;;;;;;;;;;;;;;;;;5035378;28;19928;-84
2021/12/19 04:54:32;;;;;;;;;;;;;;;;;;5034813;28;20354;-85
2021/12/19 05:05:18;;;;;;;;;;;;;;;;;;5032378;28;20378;-85
2021/12/19 05:15:50;;;;;;;;;;;;;;;;;;5016082;28;19928;-85
2021/12/19 05:18:16;;;;;;;;;;;;;;;;;;5034248;28;20000;-85
2021/12/19 05:20:58;;;;;;;;;;;;;;;;;;5034927;28;19922;-85
2021/12/19 05:24:20;;;;;;;;;;;;;;;;;;5034592;28;19924;-85
2021/12/19 05:26:17;;;;;;;;;;;;;;;;;;5019588;28;19917;-85
2021/12/19 05:28:42;;;;;;;;;;;;;;;;;;5035541;28;19947;-85
2021/12/19 05:31:08;;;;;;;;;;;;;;;;;;5033528;28;19952;-85
2021/12/19 05:33:34;;;;;;;;;;;;;;;;;;5034298;28;19968;-85
2021/12/19 05:44:07;;;;;;;;;;;;;;;;;;5017400;28;19917;-86
2021/12/19 05:45:12;;;;;;;;;;;;;;;;;;5035249;28;19975;-85
2021/12/19 05:47:01;;;;;;;;;;;;;;;;;;5034311;28;19990;-84
2021/12/19 05:49:26;;;;;;;;;;;;;;;;;;5034234;28;20311;-85
2021/12/19 05:51:51;;;;;;;;;;;;;;;;;;5034619;28;19924;-85
2021/12/19 05:54:19;;;;;;;;;;;;;;;;;;5033922;28;20342;-85
2021/12/19 05:56:44;;;;;;;;;;;;;;;;;;5033111;28;19917;-88
2021/12/19 05:59:10;;;;;;;;;;;;;;;;;;5033973;28;19917;-83
2021/12/19 06:01:38;;;;;;;;;;;;;;;;;;5034364;28;19921;-83
2021/12/19 06:04:03;;;;;;;;;;;;;;;;;;5033280;28;19917;-83
2021/12/19 06:06:29;;;;;;;;;;;;;;;;;;5034102;28;19928;-83
2021/12/19 06:08:54;;;;;;;;;;;;;;;;;;5034236;28;20643;-83
2021/12/19 06:11:19;;;;;;;;;;;;;;;;;;5033146;28;19917;-83
2021/12/19 06:13:56;;;;;;;;;;;;;;;;;;5033622;28;19921;-84
2021/12/19 06:16:22;;;;;;;;;;;;;;;;;;5034047;28;20243;-84
2021/12/19 06:18:47;;;;;;;;;;;;;;;;;;5034064;28;19924;-83
2021/12/19 06:21:15;;;;;;;;;;;;;;;;;;5032820;28;19927;-82
2021/12/19 06:23:42;;;;;;;;;;;;;;;;;;5033976;28;19913;-82
2021/12/19 06:26:11;;;;;;;;;;;;;;;;;;5033730;28;19935;-83
2021/12/19 06:28:39;;;;;;;;;;;;;;;;;;5032494;28;20235;-83
2021/12/19 06:31:04;;;;;;;;;;;;;;;;;;5032992;28;19964;-82
2021/12/19 06:33:30;;;;;;;;;;;;;;;;;;5034170;28;19975;-82
2021/12/19 06:35:55;;;;;;;;;;;;;;;;;;5032976;28;19917;-82
2021/12/19 06:38:20;;;;;;;;;;;;;;;;;;5033872;28;19924;-82
2021/12/19 06:40:45;;;;;;;;;;;;;;;;;;5033955;28;19917;-82
2021/12/19 06:43:10;;;;;;;;;;;;;;;;;;5032634;28;19928;-83
2021/12/19 06:45:36;;;;;;;;;;;;;;;;;;5033291;28;20349;-83
2021/12/19 06:48:01;;;;;;;;;;;;;;;;;;5033745;28;20385;-83
2021/12/19 06:50:26;;;;;;;;;;;;;;;;;;5033504;28;20355;-82
2021/12/19 06:52:52;;;;;;;;;;;;;;;;;;5033673;28;19935;-83
2021/12/19 06:55:17;;;;;;;;;;;;;;;;;;5033425;28;20052;-82
2021/12/19 06:57:43;;;;;;;;;;;;;;;;;;5032287;28;19928;-82
2021/12/19 07:00:10;;;;;;;;;;;;;;;;;;5032316;28;19925;-83
2021/12/19 07:02:35;;;;;;;;;;;;;;;;;;5033253;28;19917;-82
2021/12/19 07:05:01;;;;;;;;;;;;;;;;;;5032590;28;20011;-82
2021/12/19 07:07:26;;;;;;;;;;;;;;;;;;5033314;28;19938;-82
2021/12/19 07:09:51;;;;;;;;;;;;;;;;;;5033406;28;19917;-82
2021/12/19 07:12:19;;;;;;;;;;;;;;;;;;5032792;28;20353;-82
2021/12/19 07:14:45;;;;;;;;;;;;;;;;;;5033428;28;20338;-81
2021/12/19 07:17:13;;;;;;;;;;;;;;;;;;5033160;28;19979;-82
2021/12/19 07:19:38;;;;;;;;;;;;;;;;;;5032580;28;20051;-83
2021/12/19 07:22:03;;;;;;;;;;;;;;;;;;5032350;28;20008;-83
2021/12/19 07:24:29;;;;;;;;;;;;;;;;;;5036883;28;19964;-82
2021/12/19 07:26:54;;;;;;;;;;;;;;;;;;5036695;28;20372;-82
2021/12/19 07:29:19;;;;;;;;;;;;;;;;;;5036137;28;19917;-84
2021/12/19 07:31:45;;;;;;;;;;;;;;;;;;5036286;28;20516;-82
2021/12/19 07:34:10;;;;;;;;;;;;;;;;;;5036788;28;19921;-83
2021/12/19 07:36:40;;;;;;;;;;;;;;;;;;5035349;28;19978;-82
2021/12/19 07:39:10;;;;;;;;;;;;;;;;;;5035891;28;20000;-82
2021/12/19 07:41:38;;;;;;;;;;;;;;;;;;5036096;28;19913;-83
2021/12/19 07:44:03;;;;;;;;;;;;;;;;;;5036545;28;19917;-83
2021/12/19 07:46:28;;;;;;;;;;;;;;;;;;5036948;28;20074;-83
2021/12/19 07:48:53;;;;;;;;;;;;;;;;;;5036420;28;19949;-82
2021/12/19 07:51:18;;;;;;;;;;;;;;;;;;5018960;28;19960;-83
2021/12/19 07:53:44;;;;;;;;;;;;;;;;;;5035851;28;19925;-84
2021/12/19 07:56:11;;;;;;;;;;;;;;;;;;5035408;28;19929;-82
2021/12/19 07:58:37;;;;;;;;;;;;;;;;;;5036163;28;19917;-82
2021/12/19 08:01:02;;;;;;;;;;;;;;;;;;5037081;28;20366;-82
2021/12/19 08:03:27;;;;;;;;;;;;;;;;;;5036131;28;19916;-82
2021/12/19 08:05:53;;;;;;;;;;;;;;;;;;5035752;28;20358;-82
2021/12/19 08:08:25;;;;;;;;;;;;;;;;;;5035725;28;20542;-83
2021/12/19 08:13:16;;;;;;;;;;;;;;;;;;5035774;28;19995;-82
2021/12/19 08:15:41;;;;;;;;;;;;;;;;;;5036943;28;19924;-83
2021/12/19 08:18:06;;;;;;;;;;;;;;;;;;5043052;28;19924;-83
2021/12/19 08:20:32;;;;;;;;;;;;;;;;;;5046173;28;19923;-82
2021/12/19 08:22:59;;;;;;;;;;;;;;;;;;5041269;28;19913;-83
2021/12/19 08:25:27;;;;;;;;;;;;;;;;;;5035823;28;19917;-83
2021/12/19 08:27:53;;;;;;;;;;;;;;;;;;5036452;28;19920;-83
2021/12/19 08:30:20;;;;;;;;;;;;;;;;;;5018309;28;19928;-83
2021/12/19 08:32:45;;;;;;;;;;;;;;;;;;5034584;28;19921;-84
2021/12/19 08:35:11;;;;;;;;;;;;;;;;;;5035097;28;19924;-83
2021/12/19 08:37:36;;;;;;;;;;;;;;;;;;5033404;28;19917;-83
2021/12/19 08:40:02;;;;;;;;;;;;;;;;;;5035690;28;19920;-82
2021/12/19 08:42:28;;;;;;;;;;;;;;;;;;5029457;28;19927;-83
2021/12/19 08:44:53;;;;;;;;;;;;;;;;;;5035681;28;20335;-84
2021/12/19 08:47:21;;;;;;;;;;;;;;;;;;5034326;28;19921;-84
2021/12/19 08:49:48;;;;;;;;;;;;;;;;;;5035532;28;19978;-83
2021/12/19 08:52:14;;;;;;;;;;;;;;;;;;5035315;28;19962;-83
2021/12/19 08:54:39;;;;;;;;;;;;;;;;;;5035410;28;20309;-83
2021/12/19 08:57:07;;;;;;;;;;;;;;;;;;5034249;28;19917;-82
2021/12/19 08:59:35;;;;;;;;;;;;;;;;;;5034357;28;19924;-83
2021/12/19 09:02:01;;;;;;;;;;;;;;;;;;5033935;28;19978;-83
2021/12/19 09:04:27;;;;;;;;;;;;;;;;;;5035615;28;20281;-82
2021/12/19 09:06:56;;;;;;;;;;;;;;;;;;5017204;28;19917;-82
2021/12/19 09:09:21;;;;;;;;;;;;;;;;;;5034964;28;20262;-81
2021/12/19 09:11:47;;;;;;;;;;;;;;;;;;5034875;28;19913;-82
2021/12/19 09:14:12;;;;;;;;;;;;;;;;;;5035128;28;19928;-82
2021/12/19 09:16:39;;;;;;;;;;;;;;;;;;5035069;28;19913;-83
2021/12/19 09:19:05;;;;;;;;;;;;;;;;;;5035291;28;20342;-82
2021/12/19 09:21:32;;;;;;;;;;;;;;;;;;5037680;28;19917;-83
2021/12/19 09:24:00;;;;;;;;;;;;;;;;;;5034907;28;19917;-83
2021/12/19 09:26:25;;;;;;;;;;;;;;;;;;5034026;28;19917;-83
2021/12/19 09:28:53;;;;;;;;;;;;;;;;;;5034846;28;19982;-84
2021/12/19 09:31:21;;;;;;;;;;;;;;;;;;5034489;28;19975;-84
2021/12/19 09:33:46;;;;;;;;;;;;;;;;;;5034674;28;19928;-83
2021/12/19 09:36:12;;;;;;;;;;;;;;;;;;5033155;28;20228;-83
2021/12/19 09:38:37;;;;;;;;;;;;;;;;;;5037519;28;19913;-83
2021/12/19 09:41:12;;;;;;;;;;;;;;;;;;5033069;28;19940;-82
2021/12/19 09:43:46;;;;;;;;;;;;;;;;;;5033655;28;19940;-83
2021/12/19 09:46:13;;;;;;;;;;;;;;;;;;5031509;28;19983;-82
2021/12/19 09:48:39;;;;;;;;;;;;;;;;;;5034544;28;19913;-82
2021/12/19 09:51:05;;;;;;;;;;;;;;;;;;5033764;28;19975;-83
2021/12/19 09:53:30;;;;;;;;;;;;;;;;;;5034320;28;19917;-83
2021/12/19 09:55:58;;;;;;;;;;;;;;;;;;5033144;28;20353;-83
2021/12/19 09:58:23;;;;;;;;;;;;;;;;;;5033566;28;19936;-82
2021/12/19 10:00:48;;;;;;;;;;;;;;;;;;5034400;28;19917;-82
2021/12/19 10:03:15;;;;;;;;;;;;;;;;;;5033747;28;20282;-83
2021/12/19 10:05:40;;;;;;;;;;;;;;;;;;5033387;28;20368;-83
2021/12/19 10:08:06;;;;;;;;;;;;;;;;;;5032499;28;20011;-83
2021/12/19 10:10:45;;;;;;;;;;;;;;;;;;5033782;28;19972;-83
2021/12/19 10:13:19;;;;;;;;;;;;;;;;;;5032959;28;20331;-84
2021/12/19 10:15:50;;;;;;;;;;;;;;;;;;5033315;28;19949;-84
2021/12/19 10:18:16;;;;;;;;;;;;;;;;;;5030919;28;19917;-86
2021/12/19 10:20:59;;;;;;;;;;;;;;;;;;5029398;28;20270;-86
2021/12/19 10:23:29;;;;;;;;;;;;;;;;;;5028730;28;20334;-86
2021/12/19 10:26:06;;;;;;;;;;;;;;;;;;5029785;28;19924;-86
2021/12/19 10:28:31;;;;;;;;;;;;;;;;;;5023106;28;19921;-87
2021/12/19 10:31:00;;;;;;;;;;;;;;;;;;5025188;28;20325;-86
2021/12/19 10:33:32;;;;;;;;;;;;;;;;;;5024818;28;19984;-85
2021/12/19 10:36:02;;;;;;;;;;;;;;;;;;5032615;28;19917;-88
2021/12/19 10:38:30;;;;;;;;;;;;;;;;;;5009777;28;19928;-85
2021/12/19 10:41:15;;;;;;;;;;;;;;;;;;5025163;28;19917;-85
2021/12/19 10:43:56;;;;;;;;;;;;;;;;;;5024933;28;20008;-87
2021/12/19 10:46:32;;;;;;;;;;;;;;;;;;5025765;28;20499;-87
2021/12/19 10:49:00;;;;;;;;;;;;;;;;;;5039764;28;20012;-87
2021/12/19 10:51:26;;;;;;;;;;;;;;;;;;5024224;28;20012;-87
2021/12/19 10:53:55;;;;;;;;;;;;;;;;;;5026020;28;19932;-87
2021/12/19 10:56:22;;;;;;;;;;;;;;;;;;5029539;28;19917;-85
2021/12/19 10:58:52;;;;;;;;;;;;;;;;;;5028316;28;20447;-86
2021/12/19 11:01:21;;;;;;;;;;;;;;;;;;5025200;28;19976;-86
2021/12/19 11:03:51;;;;;;;;;;;;;;;;;;5024254;28;19936;-85
2021/12/19 11:06:36;;;;;;;;;;;;;;;;;;5028247;28;20007;-86
2021/12/19 11:09:08;;;;;;;;;;;;;;;;;;5027911;28;20346;-85
2021/12/19 11:11:46;;;;;;;;;;;;;;;;;;5030783;28;20350;-86
2021/12/19 11:14:12;;;;;;;;;;;;;;;;;;5046296;28;20355;-84
2021/12/19 11:16:37;;;;;;;;;;;;;;;;;;5025667;28;20003;-82
2021/12/19 11:19:03;;;;;;;;;;;;;;;;;;5027456;28;19956;-85
2021/12/19 11:21:33;;;;;;;;;;;;;;;;;;5031655;28;19917;-85
2021/12/19 11:23:59;;;;;;;;;;;;;;;;;;5040260;28;19917;-85
2021/12/19 11:26:27;;;;;;;;;;;;;;;;;;5013336;28;20303;-85
2021/12/19 11:29:06;;;;;;;;;;;;;;;;;;5029280;28;19971;-85
2021/12/19 11:31:44;;;;;;;;;;;;;;;;;;5030593;28;19928;-83
2021/12/19 11:34:19;;;;;;;;;;;;;;;;;;5028137;28;20349;-85
2021/12/19 11:37:01;;;;;;;;;;;;;;;;;;5025769;28;19917;-85
2021/12/19 11:39:42;;;;;;;;;;;;;;;;;;5026226;28;19921;-84
2021/12/19 11:42:14;;;;;;;;;;;;;;;;;;5031920;28;19917;-83
2021/12/19 11:47:52;;;;;;;;;;;;;;;;;;5029662;28;20015;-84
2021/12/19 11:50:22;;;;;;;;;;;;;;;;;;5025674;28;19931;-84
2021/12/19 11:52:48;;;;;;;;;;;;;;;;;;5029866;28;20016;-85
2021/12/19 11:55:16;;;;;;;;;;;;;;;;;;5027892;28;19924;-83
2021/12/19 11:57:45;;;;;;;;;;;;;;;;;;5028866;28;19968;-86
2021/12/19 12:00:29;;;;;;;;;;;;;;;;;;5030929;28;20056;-82
2021/12/19 12:03:12;;;;;;;;;;;;;;;;;;5026206;28;19917;-82
2021/12/19 12:05:38;;;;;;;;;;;;;;;;;;5028001;28;19918;-84
2021/12/19 12:08:10;;;;;;;;;;;;;;;;;;5026512;28;19917;-83
2021/12/19 12:10:48;;;;;;;;;;;;;;;;;;5027744;28;19979;-86
2021/12/19 12:13:25;;;;;;;;;;;;;;;;;;5038975;28;19968;-83
2021/12/19 12:16:27;;;;;;;;;;;;;;;;;;5042120;28;19928;-82
2021/12/19 12:18:58;;;;;;;;;;;;;;;;;;5029862;28;19925;-87
2021/12/19 12:24:00;;;;;;;;;;;;;;;;;;5033521;28;19917;-81
2021/12/19 12:26:39;;;;;;;;;;;;;;;;;;5024151;28;20422;-82
2021/12/19 12:29:05;;;;;;;;;;;;;;;;;;5027006;28;19918;-85
2021/12/19 12:31:30;;;;;;;;;;;;;;;;;;5031516;28;20465;-83
2021/12/19 12:33:56;;;;;;;;;;;;;;;;;;5027430;28;19921;-83
2021/12/19 12:36:21;;;;;;;;;;;;;;;;;;5029106;28;19921;-84
2021/12/19 12:38:54;;;;;;;;;;;;;;;;;;5028940;28;19971;-81
2021/12/19 12:41:52;;;;;;;;;;;;;;;;;;5016422;28;19913;-83
2021/12/19 12:44:26;;;;;;;;;;;;;;;;;;5015841;28;19913;-83
2021/12/19 12:46:51;;;;;;;;;;;;;;;;;;5015736;28;20385;-85
2021/12/19 12:49:21;;;;;;;;;;;;;;;;;;5034864;28;19921;-85
2021/12/19 12:51:47;;;;;;;;;;;;;;;;;;5034628;28;19917;-79
2021/12/19 12:54:33;;;;;;;;;;;;;;;;;;5035219;28;19932;-82
2021/12/19 12:57:00;;;;;;;;;;;;;;;;;;5033037;28;20317;-80
2021/12/19 12:59:29;;;;;;;;;;;;;;;;;;5019790;28;19917;-80
2021/12/19 13:02:09;;;;;;;;;;;;;;;;;;5034680;28;19964;-80
2021/12/19 13:07:40;;;;;;;;;;;;;;;;;;5029764;28;19928;-83
2021/12/19 13:16:43;;;;;;;;;;;;;;;;;;4969457;28;19972;-84
2021/12/19 13:28:45;;;;;;;;;;;;;;;;;;4970064;28;20253;-82
2021/12/19 13:37:52;;;;;;;;;;;;;;;;;;4970013;28;19932;-83
2021/12/19 13:43:54;;;;;;;;;;;;;;;;;;4959756;28;19985;-83
2021/12/19 13:59:14;;;;;;;;;;;;;;;;;;4931322;28;19934;-82
2021/12/19 14:01:42;;;;;;;;;;;;;;;;;;4912393;29;19946;-85
2021/12/19 14:13:43;;;;;;;;;;;;;;;;;;4967168;28;19932;-83
2021/12/19 14:16:38;;;;;;;;;;;;;;;;;;;;;
2021/12/19 14:19:39;;;;;;;;;;;;;;;;;;4966576;28;19927;-85
2021/12/19 14:22:15;;;;;;;;;;;;;;;;;;4926304;29;20018;-81
2021/12/19 14:28:24;;;;;;;;;;;;;;;;;;;;;
2021/12/19 14:31:17;;;;;;;;;;;;;;;;;;4920894;29;19922;-83
2021/12/19 14:43:53;;;;;;;;;;;;;;;;;;4907845;29;20356;-83
2021/12/19 14:46:37;;;;;;;;;;;;;;;;;;4941115;29;19961;-80
2021/12/19 14:49:29;;;;;;;;;;;;;;;;;;4939186;29;19919;-83
2021/12/19 14:52:00;;;;;;;;;;;;;;;;;;4900116;29;19930;-83
2021/12/19 14:54:26;;;;;;;;;;;;;;;;;;4937741;29;20034;-83
2021/12/19 14:57:03;;;;;;;;;;;;;;;;;;4937035;29;20288;-83
2021/12/19 15:00:03;;;;;;;;;;;;;;;;;;5007642;28;20017;-83
2021/12/19 15:02:30;;;;;;;;;;;;;;;;;;5017836;28;19987;-83
2021/12/19 15:05:33;;;;;;;;;;;;;;;;;;5016741;28;19918;-82
2021/12/19 15:08:32;;;;;;;;;;;;;;;;;;5015999;28;20266;-83
2021/12/19 15:14:07;;;;;;;;;;;;;;;;;;5015822;28;20259;-83
2021/12/19 15:16:35;;;;;;;;;;;;;;;;;;4983111;28;20377;-83
2021/12/19 15:19:13;;;;;;;;;;;;;;;;;;5016095;28;19917;-85
2021/12/19 15:21:41;;;;;;;;;;;;;;;;;;5016838;28;19925;-83
2021/12/19 15:24:06;;;;;;;;;;;;;;;;;;4999588;28;20012;-83
2021/12/19 15:26:31;;;;;;;;;;;;;;;;;;4999549;28;20052;-83
2021/12/19 15:29:06;;;;;;;;;;;;;;;;;;5006289;28;19921;-84
2021/12/19 15:31:31;;;;;;;;;;;;;;;;;;4998871;28;19928;-84
2021/12/19 15:33:57;;;;;;;;;;;;;;;;;;5018204;28;19921;-84
2021/12/19 15:36:26;;;;;;;;;;;;;;;;;;5003612;28;20037;-84
2021/12/19 15:38:53;;;;;;;;;;;;;;;;;;5035383;28;19916;-85
2021/12/19 15:41:21;;;;;;;;;;;;;;;;;;5036338;28;20257;-85
2021/12/19 15:43:46;;;;;;;;;;;;;;;;;;5036182;28;20492;-88
2021/12/19 15:46:14;;;;;;;;;;;;;;;;;;5036099;28;19921;-89
2021/12/19 15:48:39;;;;;;;;;;;;;;;;;;5036246;28;19916;-90
2021/12/19 15:51:04;;;;;;;;;;;;;;;;;;5036855;28;19913;-87
2021/12/19 15:53:29;;;;;;;;;;;;;;;;;;5036596;28;20003;-88
2021/12/19 15:55:55;;;;;;;;;;;;;;;;;;5035813;28;19918;-88
2021/12/19 15:58:20;;;;;;;;;;;;;;;;;;5036323;28;19914;-87
2021/12/19 16:00:46;;;;;;;;;;;;;;;;;;5036689;28;19928;-89
2021/12/19 16:03:13;;;;;;;;;;;;;;;;;;5036567;28;19924;-88
2021/12/19 16:05:38;;;;;;;;;;;;;;;;;;5035950;28;20015;-90
2021/12/19 16:08:04;;;;;;;;;;;;;;;;;;5034840;28;19953;-90
2021/12/19 16:10:29;;;;;;;;;;;;;;;;;;5035482;28;19924;-88
2021/12/19 16:12:54;;;;;;;;;;;;;;;;;;5033670;28;19913;-87
2021/12/19 16:15:20;;;;;;;;;;;;;;;;;;5031475;28;21552;-86
2021/12/19 16:17:48;;;;;;;;;;;;;;;;;;5029344;28;20457;-86
2021/12/19 16:20:14;;;;;;;;;;;;;;;;;;5029276;28;19925;-87
2021/12/19 16:22:39;;;;;;;;;;;;;;;;;;5023612;28;20288;-86
2021/12/19 16:25:07;;;;;;;;;;;;;;;;;;5027336;28;20007;-85
2021/12/19 16:27:36;;;;;;;;;;;;;;;;;;5031365;28;19931;-91
2021/12/19 16:30:01;;;;;;;;;;;;;;;;;;5030667;28;19917;-86
2021/12/19 16:32:26;;;;;;;;;;;;;;;;;;5023564;28;19924;-87
2021/12/19 16:34:52;;;;;;;;;;;;;;;;;;5028800;28;19957;-86
2021/12/19 16:37:17;;;;;;;;;;;;;;;;;;5026647;28;19971;-85
2021/12/19 16:39:46;;;;;;;;;;;;;;;;;;5030620;28;19925;-86
2021/12/19 16:44:48;;;;;;;;;;;;;;;;;;5028422;28;19917;-88
2021/12/19 16:47:21;;;;;;;;;;;;;;;;;;5031299;28;19927;-87
2021/12/19 16:49:51;;;;;;;;;;;;;;;;;;5027674;28;19936;-85
2021/12/19 16:52:18;;;;;;;;;;;;;;;;;;5027099;28;19917;-85
2021/12/19 16:54:49;;;;;;;;;;;;;;;;;;5040131;28;20011;-87
2021/12/19 16:57:18;;;;;;;;;;;;;;;;;;5024468;28;19932;-90
2021/12/19 16:59:49;;;;;;;;;;;;;;;;;;5027286;28;19928;-88
2021/12/19 17:02:19;;;;;;;;;;;;;;;;;;5030829;28;19921;-85
2021/12/19 17:04:44;;;;;;;;;;;;;;;;;;5041064;28;19929;-87
2021/12/19 17:07:10;;;;;;;;;;;;;;;;;;5029784;28;19921;-86
2021/12/19 17:09:35;;;;;;;;;;;;;;;;;;5027725;28;20373;-87
2021/12/19 17:12:09;;;;;;;;;;;;;;;;;;5024891;28;19923;-84
2021/12/19 17:14:35;;;;;;;;;;;;;;;;;;5026658;28;19929;-84
2021/12/19 17:17:02;;;;;;;;;;;;;;;;;;5026411;28;19917;-87
2021/12/19 17:19:27;;;;;;;;;;;;;;;;;;5027973;28;19917;-87
2021/12/19 17:22:06;;;;;;;;;;;;;;;;;;5023978;28;19917;-87
2021/12/19 17:24:37;;;;;;;;;;;;;;;;;;5029863;28;19944;-88
2021/12/19 17:27:05;;;;;;;;;;;;;;;;;;5024052;28;19936;-88
2021/12/19 17:29:30;;;;;;;;;;;;;;;;;;5032240;28;19917;-83
2021/12/19 17:32:01;;;;;;;;;;;;;;;;;;5029803;28;19927;-91
2021/12/19 17:34:26;;;;;;;;;;;;;;;;;;5029778;28;20306;-85
2021/12/19 17:36:54;;;;;;;;;;;;;;;;;;5035412;28;19921;-87
2021/12/19 17:39:25;;;;;;;;;;;;;;;;;;5030760;28;19924;-90
2021/12/19 17:41:56;;;;;;;;;;;;;;;;;;5030279;28;19928;-91
2021/12/19 17:44:21;;;;;;;;;;;;;;;;;;5025839;28;19921;-90
2021/12/19 17:46:46;;;;;;;;;;;;;;;;;;5027947;28;20244;-91
2021/12/19 17:49:11;;;;;;;;;;;;;;;;;;5026566;28;20330;-90
2021/12/19 17:51:37;;;;;;;;;;;;;;;;;;5022754;28;20000;-91
2021/12/19 17:57:23;;;;;;;;;;;;;;;;;;5027765;28;20042;-85
2021/12/19 18:00:08;;;;;;;;;;;;;;;;;;5031400;28;19921;-86
2021/12/19 18:02:33;;;;;;;;;;;;;;;;;;5021307;28;19964;-87
2021/12/19 18:05:01;;;;;;;;;;;;;;;;;;5022014;28;19960;-87
2021/12/19 18:07:42;;;;;;;;;;;;;;;;;;5028649;28;19917;-85
2021/12/19 18:10:17;;;;;;;;;;;;;;;;;;5023614;28;19956;-86
2021/12/19 18:12:46;;;;;;;;;;;;;;;;;;5022766;28;19921;-87
2021/12/19 18:15:12;;;;;;;;;;;;;;;;;;5020799;28;19964;-87
2021/12/19 18:17:38;;;;;;;;;;;;;;;;;;5022115;28;19921;-87
2021/12/19 18:20:04;;;;;;;;;;;;;;;;;;5012660;28;19987;-86
2021/12/19 18:22:29;;;;;;;;;;;;;;;;;;5025279;28;19921;-85
2021/12/19 18:24:54;;;;;;;;;;;;;;;;;;5023026;28;20231;-87
2021/12/19 18:27:34;;;;;;;;;;;;;;;;;;5030133;28;19928;-89
2021/12/19 18:30:00;;;;;;;;;;;;;;;;;;5026614;28;19978;-83
2021/12/19 18:32:37;;;;;;;;;;;;;;;;;;5025538;28;19925;-84
2021/12/19 18:35:11;;;;;;;;;;;;;;;;;;5027565;28;19922;-84
2021/12/19 18:37:41;;;;;;;;;;;;;;;;;;5026518;28;19929;-82
2021/12/19 18:40:14;;;;;;;;;;;;;;;;;;5029857;28;19925;-84
2021/12/19 18:42:51;;;;;;;;;;;;;;;;;;5029513;28;19917;-83
2021/12/19 18:45:26;;;;;;;;;;;;;;;;;;5029830;28;20364;-86
2021/12/19 19:04:59;;;;;;;;;;;;;;;;;;;;;
2021/12/19 19:07:35;;;;;;;;;;;;;;;;;;5026630;28;19921;-86
2021/12/19 19:10:16;;;;;;;;;;;;;;;;;;5044280;28;19917;-82
2021/12/19 19:15:40;;;;;;;;;;;;;;;;;;5027873;28;19975;-87
2021/12/19 19:18:23;;;;;;;;;;;;;;;;;;5013159;28;20363;-86
2021/12/19 19:20:48;;;;;;;;;;;;;;;;;;5032118;28;20003;-86
2021/12/19 19:23:26;;;;;;;;;;;;;;;;;;5030678;28;19925;-85
2021/12/19 19:25:53;;;;;;;;;;;;;;;;;;5033694;28;19928;-85
2021/12/19 19:28:25;;;;;;;;;;;;;;;;;;5032984;28;19970;-85
2021/12/19 19:30:57;;;;;;;;;;;;;;;;;;5033873;28;19966;-87
2021/12/19 19:33:28;;;;;;;;;;;;;;;;;;5030275;28;19925;-86
2021/12/19 19:35:54;;;;;;;;;;;;;;;;;;5031416;28;19986;-86
2021/12/19 19:38:43;;;;;;;;;;;;;;;;;;5029607;28;19929;-85
2021/12/19 19:49:18;;;;;;;;;;;;;;;;;;5031225;28;20278;-88
2021/12/19 19:51:44;;;;;;;;;;;;;;;;;;5032021;28;19927;-89